Time;durP1;ratioP1;P1;durP2;ratioP2;P2;SDS_P1;SDS_P2;PMS_P1;PMS_P2;Temp;Humidity;BMP_temperature;BMP_pressure;BME280_temperature;BME280_humidity;BME280_pressure;Samples;Min_cycle;Max_cycle;Signal;HPM_P1;HPM_P2
2022/06/19 00:02:06;;;;;;;;;7.00;7.00;;;;;25.07;41.22;98872.50;6242907;27;97398;-67
2022/06/19 00:05:12;;;;;;;;;7.00;7.00;;;;;25.09;41.26;98870.22;6248432;27;99531;-69
2022/06/19 00:08:16;;;;;;;;;8.00;7.00;;;;;25.07;41.28;98862.25;6261307;27;97440;-69
2022/06/19 00:11:22;;;;;;;;;7.00;7.00;;;;;25.05;41.30;98869.25;6252343;27;96910;-66
2022/06/19 00:14:28;;;;;;;;;9.00;9.00;;;;;25.07;41.00;98869.75;6261979;27;96692;-66
2022/06/19 00:17:31;;;;;;;;;8.00;6.60;;;;;25.06;41.12;98868.94;6261996;27;97455;-69
2022/06/19 00:20:34;;;;;;;;;7.60;7.00;;;;;25.06;40.99;98870.88;6226523;27;99468;-68
2022/06/19 00:23:39;;;;;;;;;6.00;6.00;;;;;25.03;41.00;98864.03;6245354;27;97189;-69
2022/06/19 00:26:43;;;;;;;;;5.00;5.00;;;;;24.97;40.94;98863.34;6265247;27;96611;-67
2022/06/19 00:29:48;;;;;;;;;7.00;6.00;;;;;25.05;40.69;98867.31;6244669;27;98175;-67
2022/06/19 00:32:51;;;;;;;;;5.60;5.60;;;;;25.08;40.80;98869.41;6244863;27;97819;-69
2022/06/19 00:35:55;;;;;;;;;6.33;6.00;;;;;25.07;40.72;98861.47;6265575;27;97540;-66
2022/06/19 00:38:59;;;;;;;;;6.00;5.60;;;;;25.05;40.58;98861.78;6257149;27;98200;-66
2022/06/19 00:42:02;;;;;;;;;6.00;6.00;;;;;25.09;40.74;98850.91;6236612;27;97924;-64
2022/06/19 00:45:07;;;;;;;;;7.00;6.60;;;;;25.05;40.60;98853.50;6247498;27;96308;-64
2022/06/19 00:48:15;;;;;;;;;7.00;7.00;;;;;25.06;40.75;98857.09;6256548;27;97423;-68
2022/06/19 00:51:20;;;;;;;;;6.75;6.00;;;;;25.05;40.77;98849.94;6226411;27;97390;-67
2022/06/19 00:54:23;;;;;;;;;6.60;6.00;;;;;25.01;40.65;98847.81;6265168;27;97500;-66
2022/06/19 00:57:29;;;;;;;;;8.00;7.00;;;;;25.03;40.40;98847.47;6230474;27;98394;-66
2022/06/19 01:00:36;;;;;;;;;4.80;4.20;;;;;24.99;40.30;98844.56;6265014;27;96391;-66
2022/06/19 01:03:50;;;;;;;;;6.00;6.00;;;;;25.03;40.60;98842.78;6246781;27;99890;-67
2022/06/19 01:06:54;;;;;;;;;5.50;5.00;;;;;25.02;40.34;98838.41;6237217;28;96712;-68
2022/06/19 01:09:58;;;;;;;;;7.00;7.00;;;;;25.01;40.47;98844.25;6259846;27;96613;-65
2022/06/19 01:13:02;;;;;;;;;6.20;6.00;;;;;25.03;40.31;98840.03;6246909;27;97381;-70
2022/06/19 01:16:08;;;;;;;;;7.00;6.00;;;;;25.04;40.40;98840.84;6246497;27;96588;-64
2022/06/19 01:19:20;;;;;;;;;6.20;5.80;;;;;24.98;40.42;98828.31;6260282;27;97189;-68
2022/06/19 01:22:32;;;;;;;;;6.60;6.60;;;;;25.01;40.80;98827.69;6246068;27;100201;-66
2022/06/19 01:25:39;;;;;;;;;6.00;6.00;;;;;24.98;40.54;98828.31;6265263;27;97183;-66
2022/06/19 01:28:56;;;;;;;;;6.20;6.00;;;;;24.93;40.89;98817.41;6264885;27;96454;-68
2022/06/19 01:32:04;;;;;;;;;7.00;6.00;;;;;24.82;41.71;98819.63;6246486;27;97400;-65
2022/06/19 01:35:10;;;;;;;;;7.00;6.00;;;;;24.68;42.26;98807.84;6250154;27;97553;-66
2022/06/19 01:38:17;;;;;;;;;7.00;7.00;;;;;24.59;42.59;98804.22;6232647;27;96875;-66
2022/06/19 01:41:28;;;;;;;;;7.00;6.80;;;;;24.52;42.25;98793.69;6250760;27;96482;-66
2022/06/19 01:44:32;;;;;;;;;8.20;7.00;;;;;24.48;42.69;98789.91;6264904;27;96690;-66
2022/06/19 01:47:36;;;;;;;;;8.00;7.40;;;;;24.46;42.74;98794.09;6213767;27;96724;-65
2022/06/19 01:50:41;;;;;;;;;8.00;7.00;;;;;24.41;42.85;98789.53;6246444;27;96554;-68
2022/06/19 01:53:49;;;;;;;;;9.00;8.00;;;;;24.40;42.92;98793.41;6264722;27;96357;-64
2022/06/19 01:56:56;;;;;;;;;7.00;7.00;;;;;24.38;42.92;98798.44;6245523;27;97813;-68
2022/06/19 02:00:00;;;;;;;;;7.75;7.75;;;;;24.36;42.40;98802.63;6236420;28;97878;-64
2022/06/19 02:03:25;;;;;;;;;9.00;7.40;;;;;24.36;42.80;98791.63;6253627;27;96368;-66
2022/06/19 02:06:36;;;;;;;;;7.00;6.50;;;;;24.33;43.03;98784.81;6261856;27;96995;-66
2022/06/19 02:09:39;;;;;;;;;7.50;7.00;;;;;24.31;43.08;98787.03;6264288;27;97472;-67
2022/06/19 02:12:44;;;;;;;;;7.80;7.00;;;;;24.16;43.25;98776.38;6264199;27;96740;-67
2022/06/19 02:15:50;;;;;;;;;8.40;8.00;;;;;24.24;43.35;98796.91;6245448;27;97390;-69
2022/06/19 02:18:54;;;;;;;;;7.00;7.00;;;;;24.20;43.54;98784.84;6245577;27;99928;-66
2022/06/19 02:21:58;;;;;;;;;7.00;7.00;;;;;24.13;43.93;98779.75;6249638;27;97367;-68
2022/06/19 02:25:02;;;;;;;;;7.60;7.00;;;;;24.10;44.07;98777.63;6263937;27;97549;-67
2022/06/19 02:28:09;;;;;;;;;7.00;6.00;;;;;24.10;43.82;98783.94;6263685;27;97982;-65
2022/06/19 02:31:13;;;;;;;;;6.00;6.00;;;;;24.09;44.02;98776.78;6263600;27;97041;-67
2022/06/19 02:34:22;;;;;;;;;7.67;7.00;;;;;24.04;44.17;98770.63;6263401;27;97528;-66
2022/06/19 02:37:31;;;;;;;;;8.00;8.00;;;;;24.03;43.96;98774.50;6263543;27;96905;-66
2022/06/19 02:40:48;;;;;;;;;6.25;6.25;;;;;24.03;44.14;98772.56;6249433;27;97440;-66
2022/06/19 02:43:53;;;;;;;;;7.00;7.00;;;;;24.01;44.33;98782.25;6263417;27;97416;-68
2022/06/19 02:46:56;;;;;;;;;7.00;7.00;;;;;23.99;44.33;98781.75;6261651;27;97332;-66
2022/06/19 02:50:00;;;;;;;;;7.00;7.00;;;;;23.96;44.13;98783.19;6228368;27;97868;-68
2022/06/19 02:53:03;;;;;;;;;6.60;6.40;;;;;23.96;44.38;98787.88;6263020;27;96547;-66
2022/06/19 02:56:09;;;;;;;;;7.00;6.25;;;;;23.98;44.47;98794.72;6245159;27;97427;-66
2022/06/19 02:59:13;;;;;;;;;5.00;5.00;;;;;24.01;44.26;98798.78;6244336;27;98345;-67
2022/06/19 03:02:17;;;;;;;;;5.20;5.20;;;;;24.04;44.13;98796.19;6262419;27;97483;-67
2022/06/19 03:05:24;;;;;;;;;7.50;6.00;;;;;24.06;44.41;98799.47;6262673;27;96534;-66
2022/06/19 03:08:27;;;;;;;;;7.00;6.00;;;;;24.10;44.36;98800.47;6262765;27;96614;-66
2022/06/19 03:11:31;;;;;;;;;8.00;7.00;;;;;24.13;44.22;98797.09;6262833;27;96579;-65
2022/06/19 03:14:35;;;;;;;;;6.00;6.00;;;;;24.15;43.91;98794.84;6244288;27;100134;-66
2022/06/19 03:17:40;;;;;;;;;6.25;6.25;;;;;24.19;43.81;98802.53;6261891;27;97445;-66
2022/06/19 03:20:43;;;;;;;;;6.00;6.00;;;;;24.21;43.87;98798.31;6244661;27;97449;-67
2022/06/19 03:23:46;;;;;;;;;5.00;5.00;;;;;24.25;43.33;98802.06;6262124;27;98057;-66
2022/06/19 03:26:49;;;;;;;;;6.00;6.00;;;;;24.33;43.14;98809.59;6260661;27;97449;-65
2022/06/19 03:29:54;;;;;;;;;6.00;6.00;;;;;24.41;43.02;98808.00;6237727;27;97565;-67
2022/06/19 03:32:58;;;;;;;;;5.00;5.00;;;;;24.51;43.00;98796.72;6262506;27;97458;-68
2022/06/19 03:36:02;;;;;;;;;6.60;6.00;;;;;24.58;42.77;98806.16;6252306;27;99457;-64
2022/06/19 03:39:05;;;;;;;;;5.00;5.00;;;;;24.67;42.50;98803.50;6255851;27;97064;-66
2022/06/19 03:42:11;;;;;;;;;5.00;5.00;;;;;24.59;42.39;98790.44;6221794;27;96871;-68
2022/06/19 03:45:16;;;;;;;;;5.20;5.00;;;;;24.81;42.21;98806.97;6247037;27;97533;-67
2022/06/19 03:48:20;;;;;;;;;6.33;5.00;;;;;24.82;42.38;98799.50;6226581;27;96905;-68
2022/06/19 03:51:23;;;;;;;;;6.75;6.00;;;;;24.86;42.09;98806.84;6258636;27;96804;-66
2022/06/19 03:54:27;;;;;;;;;5.60;5.60;;;;;24.89;42.08;98803.47;6257748;27;97419;-67
2022/06/19 03:57:31;;;;;;;;;6.20;6.00;;;;;24.96;41.70;98792.78;6263258;27;96350;-67
2022/06/19 04:00:35;;;;;;;;;5.80;5.20;;;;;25.00;42.10;98792.97;6247597;27;97490;-66
2022/06/19 04:03:39;;;;;;;;;5.25;5.00;;;;;25.07;42.00;98798.81;6266209;27;97629;-65
2022/06/19 04:06:43;;;;;;;;;6.00;6.00;;;;;25.15;41.60;98795.28;6247363;27;96706;-69
2022/06/19 04:09:46;;;;;;;;;6.40;6.00;;;;;25.21;41.69;98793.22;6244604;27;98064;-67
2022/06/19 04:12:50;;;;;;;;;7.00;6.00;;;;;25.28;41.71;98793.53;6266049;27;96766;-68
2022/06/19 04:15:56;;;;;;;;;7.00;7.00;;;;;25.34;41.62;98797.78;6247482;27;96482;-68
2022/06/19 04:19:01;;;;;;;;;6.00;6.00;;;;;25.33;42.04;98796.97;6244326;27;96704;-69
2022/06/19 04:22:05;;;;;;;;;7.00;6.75;;;;;25.46;41.76;98796.03;6265933;27;97594;-66
2022/06/19 04:25:13;;;;;;;;;7.00;7.00;;;;;25.55;41.46;98801.63;6263731;27;99644;-65
2022/06/19 04:28:18;;;;;;;;;6.60;6.60;;;;;25.68;41.47;98797.88;6263566;27;97572;-64
2022/06/19 04:31:23;;;;;;;;;6.60;6.60;;;;;25.79;41.55;98803.91;6265685;27;96775;-66
2022/06/19 04:34:27;;;;;;;;;6.00;6.00;;;;;25.82;41.35;98800.50;6262216;27;97481;-64
2022/06/19 04:37:30;;;;;;;;;6.00;6.00;;;;;25.95;41.32;98794.00;6261843;27;96611;-64
2022/06/19 04:40:34;;;;;;;;;6.67;5.00;;;;;26.02;40.96;98771.41;6263053;27;96891;-68
2022/06/19 04:43:38;;;;;;;;;6.00;5.00;;;;;26.23;40.99;98784.28;6265168;27;96479;-66
2022/06/19 04:46:43;;;;;;;;;6.00;5.00;;;;;26.35;40.45;98785.56;6245315;27;97398;-66
2022/06/19 04:49:47;;;;;;;;;4.00;4.00;;;;;26.43;40.46;98784.75;6264746;27;97527;-66
2022/06/19 04:52:50;;;;;;;;;6.80;6.00;;;;;26.51;40.28;98781.13;6263957;27;97432;-68
2022/06/19 04:55:54;;;;;;;;;5.00;5.00;;;;;26.68;40.41;98776.38;6263519;27;97496;-66
2022/06/19 04:58:57;;;;;;;;;5.00;5.00;;;;;26.78;39.94;98774.41;6263593;27;96443;-66
2022/06/19 05:02:02;;;;;;;;;5.00;5.00;;;;;27.00;40.04;98776.94;6263237;27;96857;-66
2022/06/19 05:05:07;;;;;;;;;6.00;5.20;;;;;27.14;39.41;98772.00;6244955;27;99537;-68
2022/06/19 05:08:11;;;;;;;;;5.00;5.00;;;;;27.35;39.40;98774.81;6245448;27;96641;-66
2022/06/19 05:11:15;;;;;;;;;6.00;6.00;;;;;27.55;38.54;98783.19;6264484;27;97255;-66
2022/06/19 05:14:18;;;;;;;;;5.00;5.00;;;;;27.75;38.36;98778.00;6264564;27;97677;-66
2022/06/19 05:17:23;;;;;;;;;5.00;5.00;;;;;27.90;38.10;98772.69;6265142;27;97426;-65
2022/06/19 05:20:26;;;;;;;;;5.00;5.00;;;;;28.02;37.56;98775.50;6246542;27;97465;-66
2022/06/19 05:23:30;;;;;;;;;5.00;5.00;;;;;28.07;37.41;98780.03;6264493;27;97664;-67
2022/06/19 05:26:35;;;;;;;;;5.00;5.00;;;;;28.17;37.21;98770.50;6245782;27;97408;-66
2022/06/19 05:29:39;;;;;;;;;4.00;4.00;;;;;28.28;37.59;98763.41;6256545;27;96425;-66
2022/06/19 05:32:44;;;;;;;;;7.00;6.00;;;;;28.36;37.39;98765.25;6264798;27;97425;-66
2022/06/19 05:35:47;;;;;;;;;5.00;5.00;;;;;28.46;36.72;98764.03;6260433;27;97472;-66
2022/06/19 05:38:51;;;;;;;;;6.00;5.00;;;;;28.42;37.12;98755.59;6255671;27;97827;-66
2022/06/19 05:41:57;;;;;;;;;7.00;6.00;;;;;28.48;36.32;98765.31;6254018;27;97260;-68
2022/06/19 05:45:00;;;;;;;;;5.60;5.60;;;;;28.58;36.71;98773.19;6233362;28;97440;-68
2022/06/19 05:48:05;;;;;;;;;4.25;4.00;;;;;28.67;36.73;98768.38;6263910;27;97453;-65
2022/06/19 05:51:10;;;;;;;;;5.25;5.25;;;;;28.77;36.87;98765.19;6264637;27;96525;-67
2022/06/19 05:54:14;;;;;;;;;4.00;4.00;;;;;28.92;37.12;98752.59;6264323;27;97468;-66
2022/06/19 05:57:17;;;;;;;;;6.00;5.00;;;;;29.12;36.67;98757.22;6229644;27;97979;-68
2022/06/19 06:00:21;;;;;;;;;5.00;5.00;;;;;29.05;35.33;98761.72;6263361;27;97442;-65
2022/06/19 06:03:26;;;;;;;;;5.00;5.00;;;;;29.09;35.55;98751.53;6263672;27;96729;-66
2022/06/19 06:06:32;;;;;;;;;5.00;4.60;;;;;29.11;36.30;98757.56;6264335;27;96339;-65
2022/06/19 06:09:38;;;;;;;;;4.25;4.00;;;;;29.06;35.84;98744.75;6240483;27;96505;-68
2022/06/19 06:12:42;;;;;;;;;5.40;5.00;;;;;29.13;35.72;98731.06;6256377;27;97418;-68
2022/06/19 06:15:46;;;;;;;;;5.60;5.00;;;;;29.06;35.68;98711.44;6231354;27;97172;-69
2022/06/19 06:18:51;;;;;;;;;6.00;6.00;;;;;29.22;36.12;98711.53;6236821;28;98438;-65
2022/06/19 06:21:54;;;;;;;;;5.00;4.75;;;;;29.53;35.73;98738.69;6260565;27;97485;-68
2022/06/19 06:24:57;;;;;;;;;5.00;4.00;;;;;29.71;35.57;98732.50;6245265;27;96812;-67
2022/06/19 06:28:01;;;;;;;;;4.40;4.40;;;;;29.63;35.06;98741.00;6245525;27;97333;-68
2022/06/19 06:31:04;;;;;;;;;5.00;4.60;;;;;29.58;34.93;98735.69;6231123;27;96670;-64
2022/06/19 06:34:09;;;;;;;;;6.00;5.00;;;;;29.79;35.04;98730.78;6263535;27;96592;-66
2022/06/19 06:37:13;;;;;;;;;5.00;5.00;;;;;29.83;34.48;98723.34;6263861;27;97133;-69
2022/06/19 06:40:17;;;;;;;;;5.00;5.00;;;;;29.85;34.55;98723.00;6231005;27;97530;-67
2022/06/19 06:43:21;;;;;;;;;4.00;3.75;;;;;29.94;34.38;98723.69;6227418;27;96898;-66
2022/06/19 06:46:27;;;;;;;;;5.00;4.00;;;;;30.11;34.67;98720.59;6263442;27;97480;-69
2022/06/19 06:49:31;;;;;;;;;5.00;5.00;;;;;30.36;35.69;98713.75;6263490;27;96961;-69
2022/06/19 06:52:35;;;;;;;;;5.00;5.00;;;;;30.27;34.10;98712.28;6263333;27;96801;-65
2022/06/19 06:55:38;;;;;;;;;5.00;5.00;;;;;30.39;33.42;98712.22;6263848;27;96991;-66
2022/06/19 06:58:42;;;;;;;;;4.80;4.80;;;;;30.44;34.03;98709.19;6244932;27;98879;-65
2022/06/19 07:01:45;;;;;;;;;6.00;6.00;;;;;30.61;33.04;98706.09;6230073;27;97973;-67
2022/06/19 07:04:50;;;;;;;;;4.00;4.00;;;;;30.73;33.68;98706.00;6244609;27;96738;-66
2022/06/19 07:07:54;;;;;;;;;5.00;4.00;;;;;30.94;33.83;98708.50;6243541;27;97619;-69
2022/06/19 07:10:57;;;;;;;;;5.00;5.00;;;;;30.97;33.30;98707.78;6244611;27;98174;-69
2022/06/19 07:14:01;;;;;;;;;5.00;5.00;;;;;31.09;32.77;98698.53;6243744;27;97310;-65
2022/06/19 07:17:05;;;;;;;;;5.00;5.00;;;;;31.07;33.13;98692.53;6221880;28;97723;-66
2022/06/19 07:20:12;;;;;;;;;5.00;5.00;;;;;31.00;33.20;98679.22;6260339;27;96482;-69
2022/06/19 07:23:15;;;;;;;;;5.00;5.00;;;;;31.20;33.03;98688.47;6244601;27;97043;-67
2022/06/19 07:26:22;;;;;;;;;6.00;6.00;;;;;31.36;32.80;98694.81;6248741;27;97374;-75
2022/06/19 07:29:25;;;;;;;;;5.00;5.00;;;;;31.55;33.12;98694.84;6242525;27;97124;-73
2022/06/19 07:32:28;;;;;;;;;5.00;5.00;;;;;31.75;32.32;98696.50;6242802;27;96599;-73
2022/06/19 07:35:33;;;;;;;;;4.40;4.40;;;;;31.97;32.26;98683.78;6260540;27;96495;-73
2022/06/19 07:38:36;;;;;;;;;5.00;5.00;;;;;32.24;31.44;98691.16;6256040;27;96941;-72
2022/06/19 07:41:40;;;;;;;;;5.00;5.00;;;;;32.43;30.89;98690.28;6250404;27;97964;-73
2022/06/19 07:44:43;;;;;;;;;5.00;5.00;;;;;32.60;30.75;98700.97;6243014;27;97944;-71
2022/06/19 07:51:08;;;;;;;;;6.00;6.00;;;;;32.93;30.88;98686.41;6262327;27;96664;-74
2022/06/19 07:54:12;;;;;;;;;6.00;6.00;;;;;33.12;30.44;98679.91;6226544;27;99554;-72
2022/06/19 07:57:15;;;;;;;;;4.50;4.50;;;;;33.17;30.45;98653.66;6226839;27;96985;-75
2022/06/19 08:00:22;;;;;;;;;6.40;6.40;;;;;33.33;29.65;98668.28;6261103;27;96631;-72
2022/06/19 08:03:26;;;;;;;;;6.00;6.00;;;;;33.55;29.66;98678.56;6262251;27;96593;-73
2022/06/19 08:06:37;;;;;;;;;6.00;5.00;;;;;33.84;30.18;98680.56;6239020;27;98379;-72
2022/06/19 08:09:40;;;;;;;;;5.20;5.20;;;;;34.22;29.18;98687.00;6261660;27;97424;-72
2022/06/19 08:12:46;;;;;;;;;5.00;5.00;;;;;34.51;28.65;98676.91;6222604;27;97481;-72
2022/06/19 08:15:50;;;;;;;;;5.00;5.00;;;;;34.85;28.45;98678.44;6240239;27;96680;-75
2022/06/19 08:18:54;;;;;;;;;5.00;5.00;;;;;35.03;27.61;98671.00;6243279;27;98719;-76
2022/06/19 08:21:59;;;;;;;;;5.00;5.00;;;;;35.22;27.63;98671.94;6226145;27;96619;-73
2022/06/19 08:25:02;;;;;;;;;6.00;5.40;;;;;35.36;27.52;98664.41;6261280;27;96615;-76
2022/06/19 08:28:07;;;;;;;;;5.80;5.00;;;;;35.57;28.06;98667.34;6243277;27;96696;-75
2022/06/19 08:31:10;;;;;;;;;5.00;5.00;;;;;35.79;27.24;98664.66;6257760;27;97399;-74
2022/06/19 08:34:14;;;;;;;;;4.20;4.20;;;;;36.06;26.97;98674.38;6243037;27;98533;-72
2022/06/19 08:37:18;;;;;;;;;4.60;4.60;;;;;36.37;26.57;98670.06;6242797;27;96805;-72
2022/06/19 08:40:37;;;;;;;;;5.00;5.00;;;;;36.46;26.11;98668.47;6241645;27;98138;-74
2022/06/19 08:44:14;;;;;;;;;5.00;5.00;;;;;36.37;25.65;98659.63;6261264;27;97600;-72
2022/06/19 08:47:42;;;;;;;;;5.75;5.00;;;;;36.52;27.26;98662.44;6265262;27;97640;-74
2022/06/19 08:50:55;;;;;;;;;6.00;6.00;;;;;36.54;26.36;98629.16;6265421;27;96612;-75
2022/06/19 08:54:27;;;;;;;;;6.00;6.00;;;;;36.63;25.79;98658.50;6230441;27;97128;-74
2022/06/19 08:57:41;;;;;;;;;6.00;6.00;;;;;36.90;26.73;98645.63;6246909;27;97824;-72
2022/06/19 09:00:51;;;;;;;;;6.00;5.60;;;;;36.98;25.33;98649.25;6264753;27;97476;-75
2022/06/19 09:07:38;;;;;;;;;4.00;4.00;;;;;37.10;25.47;98657.28;6264458;27;96294;-71
2022/06/19 09:10:48;;;;;;;;;5.00;5.00;;;;;37.31;25.73;98656.44;6265404;27;97391;-72
2022/06/19 09:14:03;;;;;;;;;4.00;4.00;;;;;37.40;24.07;98651.19;6265001;27;98164;-75
2022/06/19 09:17:11;;;;;;;;;4.80;4.80;;;;;37.39;24.06;98655.19;6243767;27;96930;-72
2022/06/19 09:20:27;;;;;;;;;4.00;4.00;;;;;37.41;24.26;98663.25;6263970;27;96838;-72
2022/06/19 09:23:54;;;;;;;;;5.75;5.00;;;;;37.44;23.74;98662.41;6245578;27;98399;-72
2022/06/19 09:27:01;;;;;;;;;4.00;4.00;;;;;37.48;24.49;98657.59;6252228;27;97490;-74
2022/06/19 09:30:11;;;;;;;;;6.00;5.00;;;;;37.57;24.34;98650.38;6250648;27;97522;-75
2022/06/19 09:33:21;;;;;;;;;5.40;5.00;;;;;37.64;23.79;98646.72;6261360;27;98093;-73
2022/06/19 09:36:34;;;;;;;;;7.40;7.00;;;;;37.65;24.53;98645.50;6264289;27;96558;-74
2022/06/19 09:39:47;;;;;;;;;6.60;5.00;;;;;37.82;23.96;98649.47;6253916;27;96612;-74
2022/06/19 09:42:58;;;;;;;;;4.40;4.40;;;;;37.94;24.16;98646.19;6263850;27;96222;-74
2022/06/19 09:46:07;;;;;;;;;4.40;4.40;;;;;37.97;23.67;98636.94;6264060;27;97423;-74
2022/06/19 09:49:18;;;;;;;;;6.00;5.00;;;;;38.17;23.34;98629.56;6262064;27;96571;-75
2022/06/19 09:52:28;;;;;;;;;4.00;4.00;;;;;38.42;23.57;98618.94;6256420;27;96824;-72
2022/06/19 09:55:36;;;;;;;;;4.60;4.60;;;;;38.46;23.30;98618.97;6246367;27;97106;-74
2022/06/19 09:58:46;;;;;;;;;5.60;5.00;;;;;38.28;22.91;98613.41;6246422;27;96760;-74
2022/06/19 10:01:56;;;;;;;;;4.00;4.00;;;;;38.22;22.58;98611.47;6239477;27;98358;-72
2022/06/19 10:05:06;;;;;;;;;5.00;5.00;;;;;38.36;21.88;98602.91;6245454;27;96764;-73
2022/06/19 10:08:14;;;;;;;;;5.00;5.00;;;;;38.06;21.57;98589.44;6245610;27;96826;-75
2022/06/19 10:11:23;;;;;;;;;5.00;5.00;;;;;38.07;22.05;98599.50;6264363;27;96661;-73
2022/06/19 10:14:36;;;;;;;;;4.00;4.00;;;;;37.73;21.18;98600.03;6234034;27;97509;-74
2022/06/19 10:17:50;;;;;;;;;5.00;4.00;;;;;37.53;21.92;98582.09;6261657;27;97480;-73
2022/06/19 10:21:00;;;;;;;;;4.40;4.00;;;;;37.47;21.98;98577.25;6243184;27;97869;-72
2022/06/19 10:24:15;;;;;;;;;5.00;4.60;;;;;37.24;22.48;98580.56;6263915;27;97957;-72
2022/06/19 10:27:25;;;;;;;;;5.50;5.00;;;;;37.29;22.92;98577.31;6263645;27;96506;-71
2022/06/19 10:30:37;;;;;;;;;5.40;4.00;;;;;37.27;22.19;98563.69;6244457;27;97960;-72
2022/06/19 10:33:56;;;;;;;;;5.00;4.00;;;;;37.35;22.69;98569.25;6242479;27;97338;-72
2022/06/19 10:37:08;;;;;;;;;6.00;6.00;;;;;37.43;22.16;98571.66;6263538;27;97422;-74
2022/06/19 10:40:27;;;;;;;;;5.00;5.00;;;;;37.58;22.48;98572.41;6231063;27;97373;-74
2022/06/19 10:43:44;;;;;;;;;5.00;5.00;;;;;37.73;22.47;98557.03;6262800;27;96587;-73
2022/06/19 10:47:01;;;;;;;;;4.00;4.00;;;;;37.93;22.58;98551.69;6252690;27;96494;-74
2022/06/19 10:50:18;;;;;;;;;4.40;4.00;;;;;37.99;22.40;98552.91;6225392;27;98387;-74
2022/06/19 10:53:52;;;;;;;;;6.20;5.00;;;;;38.14;21.89;98560.03;6220977;28;97493;-76
2022/06/19 10:57:02;;;;;;;;;5.00;5.00;;;;;38.26;22.43;98555.94;6214121;27;96861;-73
2022/06/19 11:00:06;;;;;;;;;5.00;4.40;;;;;38.27;21.60;98552.69;6262568;27;96910;-72
2022/06/19 11:06:48;;;;;;;;;5.00;4.00;;;;;38.69;21.49;98539.47;6258468;27;97435;-74
2022/06/19 11:09:54;;;;;;;;;6.00;5.00;;;;;38.92;21.62;98542.47;6263180;27;97590;-74
2022/06/19 11:13:03;;;;;;;;;4.00;4.00;;;;;38.79;20.81;98539.38;6244619;27;97649;-72
2022/06/19 11:16:10;;;;;;;;;5.00;5.00;;;;;38.83;20.51;98536.50;6244505;27;96511;-72
2022/06/19 11:19:32;;;;;;;;;6.00;6.00;;;;;38.80;20.94;98528.91;6262567;27;97506;-71
2022/06/19 11:22:45;;;;;;;;;5.00;4.00;;;;;39.08;21.89;98522.16;6227508;27;98293;-74
2022/06/19 11:25:59;;;;;;;;;5.00;4.00;;;;;39.27;21.05;98525.16;6221584;27;97175;-77
2022/06/19 11:29:10;;;;;;;;;5.60;4.60;;;;;39.30;20.74;98523.50;6239136;27;97251;-75
2022/06/19 11:32:16;;;;;;;;;4.00;4.00;;;;;39.31;20.65;98516.63;6262690;27;96690;-75
2022/06/19 11:35:23;;;;;;;;;5.00;4.00;;;;;39.38;21.00;98506.09;6243343;27;98653;-74
2022/06/19 11:38:37;;;;;;;;;5.00;5.00;;;;;39.34;19.73;98510.97;6242942;27;97830;-72
2022/06/19 11:41:40;;;;;;;;;5.00;4.20;;;;;39.46;20.20;98500.34;6251628;27;97078;-72
2022/06/19 11:44:52;;;;;;;;;5.00;4.60;;;;;39.36;20.49;98508.53;6262728;27;99750;-72
2022/06/19 11:48:06;;;;;;;;;4.00;4.00;;;;;39.42;20.69;98503.22;6244100;27;98451;-72
2022/06/19 11:51:18;;;;;;;;;5.00;5.00;;;;;39.70;21.23;98496.38;6260826;27;96887;-71
2022/06/19 11:54:27;;;;;;;;;4.00;4.00;;;;;39.82;19.68;98498.66;6259235;27;97445;-74
2022/06/19 11:57:33;;;;;;;;;5.00;4.75;;;;;40.01;20.39;98499.97;6255282;27;96649;-74
2022/06/19 12:00:37;;;;;;;;;6.00;6.00;;;;;40.16;20.65;98502.13;6225728;28;99563;-73
2022/06/19 12:03:47;;;;;;;;;5.00;5.00;;;;;39.99;19.60;98496.75;6229841;28;97242;-74
2022/06/19 12:06:56;;;;;;;;;5.00;5.00;;;;;39.92;19.78;98483.56;6225508;28;98822;-74
2022/06/19 12:10:02;;;;;;;;;4.00;4.00;;;;;39.91;20.02;98484.78;6229594;28;97353;-74
2022/06/19 12:13:19;;;;;;;;;5.00;4.60;;;;;39.73;19.69;98489.91;6231884;28;97960;-75
2022/06/19 12:16:25;;;;;;;;;4.50;4.00;;;;;39.59;20.18;98485.25;6233291;27;97421;-74
2022/06/19 12:19:31;;;;;;;;;5.00;4.00;;;;;39.69;20.34;98473.00;6234657;27;98799;-74
2022/06/19 12:22:42;;;;;;;;;5.00;4.00;;;;;39.75;19.15;98474.16;6234289;27;97314;-75
2022/06/19 12:25:50;;;;;;;;;3.20;3.00;;;;;39.80;19.62;98453.91;6236732;28;97467;-74
2022/06/19 12:29:00;;;;;;;;;4.00;4.00;;;;;39.91;19.80;98459.38;6219967;28;98044;-75
2022/06/19 12:32:11;;;;;;;;;4.00;3.00;;;;;39.93;20.47;98453.31;6237748;28;96733;-74
2022/06/19 12:35:24;;;;;;;;;5.00;5.00;;;;;39.74;19.71;98446.31;6236303;28;96510;-71
2022/06/19 12:38:34;;;;;;;;;4.25;4.00;;;;;39.58;19.58;98447.00;6231312;27;97447;-74
2022/06/19 12:41:48;;;;;;;;;5.00;4.00;;;;;39.34;19.99;98432.00;6236140;28;97192;-74
2022/06/19 12:45:13;;;;;;;;;5.00;5.00;;;;;39.49;20.17;98443.09;6235339;28;96630;-74
2022/06/19 12:48:35;;;;;;;;;5.00;4.00;;;;;39.68;20.01;98439.59;6238544;28;97982;-71
2022/06/19 12:51:50;;;;;;;;;3.00;3.00;;;;;39.89;19.88;98433.59;6240502;28;97497;-75
2022/06/19 12:55:25;;;;;;;;;4.00;3.00;;;;;39.87;20.00;98413.50;6232369;28;96690;-75
2022/06/19 12:58:47;;;;;;;;;5.00;4.00;;;;;40.01;20.43;98418.88;6233763;28;97020;-73
2022/06/19 13:01:59;;;;;;;;;5.00;5.00;;;;;40.12;19.81;98410.25;6216951;28;97475;-75
2022/06/19 13:05:12;;;;;;;;;4.80;4.20;;;;;40.18;20.00;98406.50;6215574;28;97469;-72
2022/06/19 13:08:29;;;;;;;;;4.40;4.40;;;;;40.14;20.49;98399.28;6213323;28;99172;-73
2022/06/19 13:11:46;;;;;;;;;3.00;3.00;;;;;40.11;18.75;98400.16;6209740;28;98627;-75
2022/06/19 13:15:08;;;;;;;;;6.00;4.40;;;;;39.96;17.99;98388.31;6195685;28;96948;-73
2022/06/19 13:18:20;;;;;;;;;4.00;3.40;;;;;39.73;19.94;98403.19;6209895;28;97449;-74
2022/06/19 13:21:37;;;;;;;;;5.00;5.00;;;;;39.57;19.26;98385.34;6211967;28;96398;-74
2022/06/19 13:24:50;;;;;;;;;4.00;3.60;;;;;39.51;17.97;98387.03;6215293;28;96541;-71
2022/06/19 13:28:17;;;;;;;;;3.40;3.40;;;;;39.32;17.83;98385.72;6211204;28;98066;-71
2022/06/19 13:31:30;;;;;;;;;3.50;3.00;;;;;39.11;18.88;98381.16;6204727;28;97533;-74
2022/06/19 13:34:48;;;;;;;;;4.00;4.00;;;;;39.10;18.12;98367.50;6215198;28;96636;-74
2022/06/19 13:38:08;;;;;;;;;3.00;3.00;;;;;39.05;17.83;98359.50;6212576;28;98425;-72
2022/06/19 13:41:27;;;;;;;;;3.40;3.40;;;;;38.95;17.93;98359.22;6213741;28;96626;-75
2022/06/19 13:44:50;;;;;;;;;3.00;3.00;;;;;38.92;17.36;98356.44;6204897;28;96544;-72
2022/06/19 13:48:02;;;;;;;;;5.00;5.00;;;;;39.06;17.95;98350.59;6188357;28;97867;-72
2022/06/19 13:51:14;;;;;;;;;3.20;3.00;;;;;39.24;17.74;98347.53;6190241;28;97554;-75
2022/06/19 13:54:24;;;;;;;;;4.00;3.00;;;;;38.93;18.67;98353.22;6189220;28;97969;-74
2022/06/19 13:57:38;;;;;;;;;3.00;3.00;;;;;38.95;18.48;98347.94;6203936;28;96450;-74
2022/06/19 14:00:51;;;;;;;;;5.00;3.20;;;;;38.74;18.38;98338.97;6198543;28;99626;-74
2022/06/19 14:07:58;;;;;;;;;5.00;4.80;;;;;38.64;18.66;98323.78;6232215;28;96956;-71
2022/06/19 14:11:04;;;;;;;;;5.00;4.00;;;;;38.55;18.51;98315.88;6238223;28;99524;-72
2022/06/19 14:14:31;;;;;;;;;5.00;4.00;;;;;38.51;19.09;98323.53;6234138;28;98439;-74
2022/06/19 14:17:45;;;;;;;;;4.00;4.00;;;;;38.35;19.22;98314.06;6233262;28;97503;-74
2022/06/19 14:20:58;;;;;;;;;5.00;5.00;;;;;38.14;18.56;98307.47;6237528;28;98640;-75
2022/06/19 14:24:08;;;;;;;;;4.00;4.00;;;;;38.16;19.37;98295.81;6220286;28;98004;-72
2022/06/19 14:27:37;;;;;;;;;3.00;3.00;;;;;38.22;18.98;98296.16;6239194;28;96932;-72
2022/06/19 14:30:44;;;;;;;;;4.00;4.00;;;;;38.02;17.99;98293.16;6236387;28;96926;-71
2022/06/19 14:33:49;;;;;;;;;3.60;3.60;;;;;38.05;19.21;98290.28;6237040;28;97657;-72
2022/06/19 14:36:52;;;;;;;;;4.00;3.50;;;;;37.80;18.99;98289.72;6234248;28;97375;-72
2022/06/19 14:39:57;;;;;;;;;3.00;3.00;;;;;37.80;19.07;98275.66;6230758;28;98458;-74
2022/06/19 14:43:02;;;;;;;;;5.00;4.67;;;;;37.82;19.18;98269.63;6234911;27;97395;-74
2022/06/19 14:46:40;;;;;;;;;4.00;3.00;;;;;37.70;19.13;98265.31;6235590;28;97685;-72
2022/06/19 14:50:10;;;;;;;;;5.00;4.00;;;;;37.77;19.15;98278.50;6227149;28;96781;-71
2022/06/19 14:53:29;;;;;;;;;4.00;3.00;;;;;37.61;19.09;98276.25;6235589;28;96754;-76
2022/06/19 14:57:17;;;;;;;;;4.40;4.00;;;;;37.51;19.44;98263.06;6236815;28;96974;-74
2022/06/19 15:00:27;;;;;;;;;4.00;3.25;;;;;37.35;19.71;98259.97;6237725;27;96688;-74
2022/06/19 15:03:41;;;;;;;;;4.80;4.00;;;;;37.24;19.39;98260.88;6255973;27;97834;-72